Latest Weather Observations for Hobart Airport

IDT60901

Issued at 9:21 am EDT Friday 19 December 2014 (issued every 10 minutes, with the page automatically refreshed every 10 minutes)

About weather observations | Map of Hobart area stations | Latest observations for Hobart area | Other Formats
Station Details ID: 094008 Name: HOBART AIRPORT Lat: -42.83 Lon: 147.50 Height: 4.0 m
Data from the previous 72 hours. | See also: Recent months at Hobart Airport
Date/Time
EDT
Tmp

°C
App
Tmp
°C
Dew
Point
°C
Rel
Hum
%
Delta-T

°C
Wind Press
QNH
hPa
Press
MSL
hPa
Rain
since
9 am
mm
Dir
 
Spd
km/h
Gust
km/h
Spd
kts
Gust
kts
19/08:30am 12.6 9.1 3.4 53 4.1 NW 11 15 6 8 1012.2 1012.2 0.4
19/08:00am 12.9 8.8 4.4 56 3.9 NNW 15 20 8 11 1011.8 1011.8 0.4
19/07:30am 12.5 9.2 4.6 58 3.6 NNW 11 15 6 8 1011.5 1011.5 0.4
19/07:00am 10.7 7.2 5.5 70 2.4 NW 13 15 7 8 1011.3 1011.3 0.4
19/05:30am 7.7 5.1 4.0 77 1.6 SW 7 9 4 5 1010.0 1010.0 0.4
19/05:00am 8.9 6.0 4.4 73 2.0 WSW 9 11 5 6 1009.4 1009.3 0.4
19/04:30am 9.1 6.4 3.8 69 2.3 SW 7 11 4 6 1009.0 1008.9 0.4
19/04:00am 9.2 8.0 4.5 72 2.1 CALM 0 0 0 0 1008.7 1008.6 0.4
19/03:30am 8.0 6.6 3.6 74 1.9 CALM 0 0 0 0 1008.5 1008.4 0.4
19/03:00am 9.7 7.0 3.8 66 2.6 N 7 15 4 8 1008.3 1008.2 0.4
19/02:30am 8.7 5.5 3.1 68 2.4 W 9 11 5 6 1008.0 1007.9 0.4
19/02:00am 9.0 6.3 3.7 69 2.3 NNW 7 9 4 5 1007.9 1007.8 0.4
19/01:30am 11.4 8.1 2.7 55 3.8 W 9 13 5 7 1007.8 1007.7 0.4
19/12:30am 11.2 7.3 3.5 59 3.4 WNW 13 17 7 9 1007.3 1007.2 0.4
 
Date/Time
EDT
Tmp

°C
App
Tmp
°C
Dew
Point
°C
Rel
Hum
%
Delta-T

°C
Wind Press
QNH
hPa
Press
MSL
hPa
Rain
since
9 am
mm
Dir
 
Spd
km/h
Gust
km/h
Spd
kts
Gust
kts
18/11:30pm 11.3 7.7 2.8 56 3.7 W 11 15 6 8 1006.8 1006.7 0.4
18/11:00pm 12.3 8.7 2.7 52 4.2 WSW 11 19 6 10 1006.7 1006.6 0.4
18/10:30pm 13.1 8.8 3.0 50 4.5 WNW 15 22 8 12 1006.4 1006.3 0.4
18/09:30pm 14.3 8.2 2.7 45 5.2 W 24 33 13 18 1005.3 1005.2 0.4
18/09:00pm 14.9 8.0 2.4 43 5.6 WNW 28 37 15 20 1004.5 1004.4 0.4
18/08:30pm 15.5 8.6 2.7 42 5.8 WNW 28 35 15 19 1003.9 1003.8 0.4
18/08:00pm 15.8 8.6 3.1 42 5.8 W 30 39 16 21 1003.3 1003.2 0.4
18/07:30pm 16.8 10.5 3.5 41 6.1 W 26 43 14 23 1002.6 1002.5 0.4
18/07:00pm 17.0 12.0 4.6 44 5.9 WNW 20 32 11 17 1001.9 1001.8 0.4
18/06:30pm 16.7 11.6 6.1 49 5.2 NW 22 30 12 16 1001.7 1001.6 0.4
18/05:30pm 15.6 10.5 7.6 59 4.0 NW 24 35 13 19 1001.2 1001.1 0.4
18/05:00pm 15.3 10.9 7.5 59 3.9 NNW 20 32 11 17 1001.1 1001.0 0.4
18/04:30pm 15.0 10.4 9.8 71 2.7 NNW 24 33 13 18 1000.9 1000.8 0.4
18/04:00pm 15.8 10.4 9.5 66 3.3 WNW 28 41 15 22 1000.6 1000.5 0.4
18/03:49pm 16.2 11.6 9.7 65 3.4 NNW 24 56 13 30 1000.5 1000.4 0.0
18/03:30pm 19.2 12.8 7.0 45 6.2 N 30 44 16 24 999.8 999.7 0.0
18/03:10pm 20.4 13.7 5.8 38 7.3 N 30 48 16 26 999.5 999.4 0.0
18/03:00pm 20.2 13.1 6.6 41 6.9 N 33 48 18 26 999.6 999.5 0.0
18/02:45pm 20.0 13.5 6.6 41 6.7 N 30 48 16 26 999.5 999.4 0.0
18/02:30pm 20.0 12.8 6.0 40 7.0 N 33 48 18 26 999.5 999.4 0.0
18/02:19pm 19.8 12.8 6.0 40 6.9 N 32 50 17 27 999.5 999.4 0.0
18/02:00pm 21.4 14.8 6.0 36 7.8 N 30 41 16 22 999.8 999.7 0.0
18/01:30pm 20.5 13.8 5.7 38 7.3 N 30 46 16 25 1000.4 1000.3 0.0
18/01:06pm 19.5 11.9 5.8 40 6.8 N 35 54 19 29 1000.5 1000.4 0.0
18/01:00pm 19.9 12.3 5.6 39 7.1 N 35 52 19 28 1000.4 1000.3 0.0
18/12:30pm 21.6 14.6 6.0 36 7.8 N 32 48 17 26 1000.7 1000.6 0.0
18/12:25pm 20.8 14.4 5.3 36 7.7 N 28 46 15 25 1000.7 1000.6 0.0
18/12:00pm 19.4 13.9 5.7 40 6.8 N 24 35 13 19 1001.3 1001.2 0.0
18/11:30am 18.6 12.2 5.3 41 6.5 N 28 39 15 21 1001.8 1001.7 0.0
18/11:00am 17.9 12.4 5.7 44 6.0 N 24 33 13 18 1002.1 1002.0 0.0
18/10:30am 17.3 11.4 5.9 47 5.6 N 26 35 14 19 1002.5 1002.4 0.0
18/10:00am 18.4 13.4 4.4 39 6.7 N 20 32 11 17 1002.8 1002.7 0.0
18/09:30am 16.0 13.0 4.0 44 5.6 WNW 9 13 5 7 1003.4 1003.3 0.0
18/09:00am 14.7 10.8 3.5 47 5.1 NW 13 19 7 10 1003.8 1003.7 0.0
18/08:30am 13.4 8.7 3.4 50 4.5 NW 17 20 9 11 1004.1 1004.0 0.0
18/08:00am 11.9 7.2 5.0 62 3.2 NW 19 24 10 13 1004.3 1004.2 0.0
18/07:30am 11.5 6.6 5.0 64 3.0 NW 20 30 11 16 1004.3 1004.2 0.0
18/07:00am 10.9 6.9 5.0 67 2.7 NW 15 20 8 11 1004.1 1004.0 0.0
18/06:30am 10.8 6.4 4.9 67 2.7 NW 17 28 9 15 1004.1 1004.0 0.0
18/06:00am 10.5 6.6 5.3 70 2.4 NNW 15 24 8 13 1004.1 1004.0 0.0
18/05:30am 10.7 6.3 5.0 68 2.6 NNW 17 22 9 12 1003.9 1003.8 0.0
18/05:00am 9.5 5.7 4.1 69 2.4 WNW 13 17 7 9 1003.9 1003.8 0.0
18/04:30am 10.8 7.6 5.1 68 2.6 N 11 15 6 8 1003.9 1003.8 0.0
18/04:00am 9.6 6.0 5.0 73 2.1 NW 13 17 7 9 1004.0 1003.9 0.0
18/03:30am 10.1 7.2 4.8 69 2.4 NW 9 11 5 6 1004.1 1004.0 0.0
18/03:00am 10.0 7.1 4.7 69 2.4 NW 9 11 5 6 1004.2 1004.1 0.0
18/02:30am 9.7 8.5 4.8 71 2.2 CALM 0 7 0 4 1004.1 1004.0 0.0
18/02:00am 10.9 8.5 4.5 64 2.9 SSW 6 7 3 4 1004.3 1004.2 0.0
18/01:30am 12.1 9.2 4.7 60 3.4 NNW 9 11 5 6 1004.6 1004.5 0.0
18/01:00am 12.4 9.6 5.1 61 3.4 NW 9 9 5 5 1005.1 1005.0 0.0
18/12:30am 12.6 9.3 4.3 57 3.8 NNW 11 13 6 7 1005.1 1005.0 0.0
18/12:00am 13.0 9.5 3.4 52 4.3 NNW 11 15 6 8 1005.4 1005.3 0.0
 
Date/Time
EDT
Tmp

°C
App
Tmp
°C
Dew
Point
°C
Rel
Hum
%
Delta-T

°C
Wind Press
QNH
hPa
Press
MSL
hPa
Rain
since
9 am
mm
Dir
 
Spd
km/h
Gust
km/h
Spd
kts
Gust
kts
17/11:30pm 13.0 10.2 5.1 58 3.7 NNW 9 11 5 6 1005.6 1005.5 0.0
17/11:00pm 14.8 11.7 5.6 54 4.4 NNW 11 17 6 9 1005.8 1005.7 0.0
17/10:30pm 15.2 11.6 6.6 56 4.2 N 15 24 8 13 1006.1 1006.0 0.0
17/10:00pm 15.0 11.4 6.6 57 4.1 NNE 15 22 8 12 1006.1 1006.0 0.0
17/09:30pm 15.3 10.6 6.0 54 4.5 NE 20 26 11 14 1006.0 1005.9 0.0
17/09:00pm 15.6 10.9 5.1 49 5.0 NE 19 24 10 13 1005.8 1005.7 0.0
17/08:30pm 15.7 12.1 5.2 49 5.0 E 13 22 7 12 1005.6 1005.5 0.0
17/08:00pm 15.8 12.4 5.9 51 4.8 ESE 13 24 7 13 1005.6 1005.5 0.0
17/07:30pm 17.0 12.2 2.5 37 6.6 WSW 17 22 9 12 1005.2 1005.1 0.0
17/07:00pm 17.4 12.4 1.2 33 7.2 WNW 17 30 9 16 1004.6 1004.5 0.0
17/06:30pm 18.8 13.7 0.6 29 8.1 WNW 17 26 9 14 1004.2 1004.1 0.0
17/06:00pm 18.0 12.1 -0.9 27 8.1 WNW 20 30 11 16 1004.0 1003.9 0.0
17/05:30pm 18.0 12.4 0.2 30 7.8 WNW 19 30 10 16 1004.1 1004.0 0.0
17/05:00pm 18.0 11.5 0.2 30 7.8 WNW 24 32 13 17 1004.2 1004.1 0.0
17/04:30pm 17.6 10.3 0.2 31 7.6 NW 28 39 15 21 1004.2 1004.1 0.0
17/04:00pm 18.1 12.4 0.7 31 7.7 WNW 20 30 11 16 1003.9 1003.8 0.0
17/03:30pm 19.4 12.6 -1.7 24 9.0 NW 24 35 13 19 1003.8 1003.7 0.0
17/03:00pm 17.7 11.1 -0.3 29 7.8 WNW 24 33 13 18 1003.9 1003.8 0.0
17/02:38pm 17.5 10.0 4.2 41 6.3 W 33 52 18 28 1004.3 1004.2 0.0
17/02:30pm 16.0 8.1 4.6 46 5.4 WNW 35 52 19 28 1004.3 1004.2 0.0
17/02:00pm 17.8 10.1 2.2 35 7.1 W 32 41 17 22 1003.9 1003.8 0.0
17/01:30pm 17.3 11.5 2.1 36 6.9 WSW 22 32 12 17 1003.8 1003.7 0.0
17/01:10pm 16.9 9.2 2.1 37 6.7 W 32 50 17 27 1003.8 1003.7 0.0
17/01:00pm 17.5 10.0 1.1 33 7.3 WNW 30 43 16 23 1003.6 1003.5 0.0
17/12:30pm 16.1 9.9 2.4 39 6.2 W 24 37 13 20 1003.7 1003.6 0.0
17/12:00pm 14.5 8.8 3.0 46 5.2 W 22 32 12 17 1003.6 1003.5 0.0
17/11:30am 15.0 10.1 2.2 42 5.7 WNW 17 32 9 17 1003.3 1003.2 0.0
17/11:00am 14.3 7.3 2.1 43 5.4 W 28 37 15 20 1002.9 1002.8 0.0
17/10:30am 14.4 7.8 2.2 43 5.4 NW 26 37 14 20 1002.8 1002.7 0.0
17/10:00am 12.8 5.5 4.5 57 3.8 WNW 32 41 17 22 1002.7 1002.6 0.0
17/09:30am 13.8 6.5 4.3 52 4.4 NW 32 35 17 19 1002.2 1002.1 0.0
17/09:00am 14.1 6.3 1.5 42 5.5 W 32 50 17 27 1002.0 1001.9 9.2
17/08:59am 14.0 6.1 1.3 42 5.5 WNW 32 50 17 27 1002.0 1001.9 9.2
17/08:30am 13.9 6.4 1.5 43 5.4 WNW 30 39 16 21 1001.5 1001.4 9.2
17/08:00am 12.4 5.6 0.5 44 5.0 WNW 26 37 14 20 1001.0 1000.9 9.2
17/07:30am 12.8 6.5 1.7 47 4.8 WNW 24 28 13 15 1000.5 1000.4 9.2
17/07:00am 12.4 4.8 0.8 45 4.9 WNW 30 37 16 20 999.7 999.6 9.2
17/06:30am 11.5 6.0 0.8 48 4.4 WNW 19 28 10 15 999.2 999.1 9.2
17/06:00am 11.4 4.9 0.0 45 4.7 W 24 37 13 20 998.1 998.0 9.2
17/05:30am 11.1 3.1 0.5 48 4.4 W 32 37 17 20 997.7 997.6 9.2
17/05:00am 11.4 3.9 1.2 49 4.3 WNW 30 41 16 22 997.6 997.5 9.2
17/04:30am 11.7 4.7 1.7 50 4.3 WNW 28 35 15 19 996.7 996.7 9.2
17/04:00am 11.8 5.3 2.4 52 4.1 WNW 26 33 14 18 996.1 996.1 9.2
17/03:30am 12.0 5.8 2.1 50 4.3 WNW 24 32 13 17 995.4 995.4 9.2
17/03:00am 12.0 5.4 1.8 49 4.4 WNW 26 35 14 19 994.8 994.8 9.2
17/02:30am 12.7 6.2 0.3 42 5.2 W 24 35 13 19 994.4 994.4 9.2
17/02:00am 12.0 8.4 4.9 62 3.3 W 13 22 7 12 994.0 994.0 9.2
17/01:30am 12.4 7.8 6.6 68 2.8 WNW 20 28 11 15 993.6 993.6 9.2
17/01:00am 13.2 8.6 5.6 60 3.6 WNW 19 28 10 15 992.7 992.7 8.8
17/12:30am 13.0 9.5 7.3 68 2.8 NNW 15 20 8 11 992.2 992.2 8.8
17/12:00am 13.1 7.7 6.5 64 3.2 NW 24 32 13 17 992.0 992.0 8.8
 
Date/Time
EDT
Tmp

°C
App
Tmp
°C
Dew
Point
°C
Rel
Hum
%
Delta-T

°C
Wind Press
QNH
hPa
Press
MSL
hPa
Rain
since
9 am
mm
Dir
 
Spd
km/h
Gust
km/h
Spd
kts
Gust
kts
16/11:30pm 13.3 6.7 6.0 61 3.5 WNW 30 41 16 22 991.5 991.5 8.8
16/11:00pm 13.8 8.6 5.4 57 4.0 WNW 22 33 12 18 991.4 991.4 8.8
16/10:30pm 13.8 6.5 5.4 57 3.9 NW 33 41 18 22 990.2 990.2 8.8
16/10:00pm 14.2 7.1 5.4 55 4.2 NW 32 43 17 23 990.0 990.0 8.8
16/09:30pm 15.3 6.9 3.9 46 5.3 WNW 37 48 20 26 988.9 988.9 8.8
16/09:18pm 15.4 8.3 5.7 52 4.6 W 32 52 17 28 988.5 988.5 8.8
16/09:00pm 16.1 9.1 5.9 50 5.0 WNW 32 41 17 22 987.7 987.7 8.8
16/08:35pm 16.2 10.0 7.7 57 4.3 NNW 30 48 16 26 985.9 985.9 8.8
16/08:30pm 16.4 10.2 8.0 57 4.2 NNW 30 41 16 22 986.1 986.1 8.8
16/08:00pm 15.9 9.5 6.9 55 4.5 NNW 30 48 16 26 986.2 986.2 8.8
16/07:58pm 16.0 10.1 7.5 57 4.2 NNW 28 48 15 26 986.1 986.1 8.8
16/07:30pm 15.4 11.2 8.1 61 3.7 N 20 28 11 15 986.1 986.1 8.8
16/07:11pm 15.2 11.4 9.9 70 2.8 NNW 20 32 11 17 986.2 986.2 8.8
16/07:00pm 14.6 11.9 13.4 92 0.7 N 20 48 11 26 986.9 986.9 8.8
16/06:44pm 15.2 13.6 13.8 91 0.8 S 15 19 8 10 985.3 985.3 6.4
16/06:30pm 15.3 14.3 13.5 89 1.0 ESE 11 15 6 8 985.5 985.5 6.0
16/06:00pm 15.2 12.7 13.6 90 0.9 SE 19 28 10 15 985.7 985.7 5.8
16/05:46pm 15.3 12.9 13.7 90 0.9 SSE 19 22 10 12 984.9 984.9 5.4
16/05:30pm 15.6 12.5 13.5 87 1.2 SSE 22 33 12 18 985.0 985.0 3.6
16/05:18pm 15.9 10.9 12.3 79 2.0 S 30 48 16 26 986.0 986.0 0.6
16/05:12pm 16.4 10.7 11.7 74 2.6 S 33 44 18 24 984.0 984.0 0.0
16/05:00pm 17.0 11.4 12.2 73 2.7 SSE 33 46 18 25 982.6 982.6 0.0
16/04:30pm 18.4 11.8 11.3 63 3.9 SSE 37 52 20 28 982.8 982.8 0.0
16/04:25pm 19.1 13.7 12.2 64 3.8 SE 32 50 17 27 982.9 982.9 0.0
16/04:00pm 19.1 13.4 13.0 67 3.5 SSE 35 44 19 24 983.2 983.2 0.0
16/03:30pm 19.9 15.4 13.9 68 3.5 SSW 30 41 16 22 983.5 983.5 0.0
16/03:16pm 21.2 17.2 14.1 64 4.1 SW 28 48 15 26 984.0 984.0 0.0
16/03:00pm 23.6 21.1 14.2 55 5.6 WSW 20 37 11 20 984.2 984.2 0.0
16/02:53pm 24.1 18.3 13.8 52 6.0 WNW 37 59 20 32 984.4 984.4 0.0
16/02:50pm 25.6 19.3 13.5 47 7.1 NNW 39 59 21 32 984.7 984.7 0.0
16/02:30pm 29.5 23.1 10.8 31 10.7 N 35 56 19 30 983.6 983.6 0.0
16/02:00pm 29.5 23.8 11.3 32 10.6 N 32 50 17 27 984.5 984.5 0.0
16/01:39pm 29.1 23.3 10.7 32 10.5 N 32 50 17 27 985.2 985.2 0.0
16/01:30pm 28.5 23.3 11.7 35 9.7 N 30 43 16 23 985.3 985.3 0.0
16/01:24pm 29.2 23.9 11.3 33 10.3 NNW 30 50 16 27 985.6 985.6 0.0
16/01:14pm 28.4 27.0 10.8 33 10.0 E 9 22 5 12 986.1 986.1 0.0
16/01:00pm 23.3 21.8 13.0 52 6.0 SE 13 17 7 9 986.8 986.8 0.0
16/12:30pm 24.0 22.7 12.6 49 6.5 NNE 11 19 6 10 987.7 987.7 0.0
16/12:00pm 24.3 22.4 13.0 49 6.6 NE 15 24 8 13 988.5 988.5 0.0
16/11:30am 24.2 22.1 12.5 48 6.7 SSE 15 26 8 14 989.4 989.4 0.0
16/11:00am 22.5 20.6 11.7 50 6.1 SSE 13 17 7 9 990.5 990.5 0.0
16/10:30am 21.7 20.9 11.6 52 5.6 ESE 7 11 4 6 991.6 991.6 0.0
16/10:00am 20.3 18.7 11.7 57 4.8 ENE 11 15 6 8 992.3 992.3 0.0
16/09:30am 19.3 17.6 11.3 60 4.4 NE 11 19 6 10 993.2 993.2 0.0

Latest Capital City Observations: Canberra | Sydney | Melbourne | Brisbane | Adelaide | Perth | Hobart | Darwin

Other Formats:

Comma delimited format used in spreadsheet applications
http://www.bom.gov.au/fwo/IDT60901/IDT60901.94975.axf

JavaScript Object Notation format (JSON) in row-major order
http://www.bom.gov.au/fwo/IDT60901/IDT60901.94975.json